Latest Weather Observations for Butlers Gorge

IDT60801

Issued at 5:02 pm EST Sunday 28 August 2016 (issued every 30 minutes, with the page automatically refreshed every 10 minutes)

About weather observations | Map of weather stations | Latest weather observations for TAS | Other Formats
Station Details ID: 096003 Name: BUTLERS GORGE Lat: -42.28 Lon: 146.28 Height: 667.0 m
Data from the previous 72 hours. | See also: Recent months at Butlers Gorge
Date/Time
EST
Temp
°C
App
Temp
°C
Dew
Point
°C
Rel
Hum
%
Delta-T
°C
Wind Press
QNH
hPa
Press
MSL
hPa
Rain since
9am
mm
Dir  Spd
km/h
Gust
km/h
Spd
kts
Gust
kts
28/05:00pm 3.7 -0.5 -0.9 72 1.8 WSW 11 17 6 9 - - 0.2
28/04:30pm 4.0 0.2 -0.6 72 1.8 WSW 9 19 5 10 - - 0.2
28/04:00pm 4.8 1.0 -1.0 66 2.2 W 9 19 5 10 - - 0.2
28/03:30pm 5.4 1.6 -0.4 66 2.3 W 9 15 5 8 - - 0.2
28/03:00pm 4.5 0.7 -0.7 69 2.0 WSW 9 15 5 8 - - 0.2
28/02:30pm 4.3 1.0 0.1 74 1.7 W 7 15 4 8 - - 0.2
28/02:00pm 4.2 -0.1 -1.4 67 2.1 W 11 20 6 11 - - 0.2
28/01:30pm 4.2 -0.8 -1.2 68 2.1 WNW 15 22 8 12 - - 0.2
28/01:00pm 3.9 -0.3 -0.7 72 1.8 WNW 11 19 6 10 - - 0.2
28/12:30pm 4.2 0.3 -1.6 66 2.2 W 9 17 5 9 - - 0.2
28/12:00pm 4.5 -0.2 -1.5 65 2.3 NW 13 28 7 15 - - 0.2
28/11:30am 3.3 -0.5 -0.7 75 1.5 WNW 9 17 5 9 - - 0.2
28/11:00am 2.6 -0.9 -1.0 77 1.4 WSW 7 13 4 7 - - 0.2
28/10:30am 2.8 -1.1 -1.2 75 1.5 WSW 9 20 5 11 - - 0.2
28/10:00am 2.3 -1.2 -1.5 76 1.4 W 7 13 4 7 - - 0.2
28/09:30am 2.0 -1.9 -1.2 79 1.2 SW 9 15 5 8 - - 0.2
28/09:00am 1.4 -2.8 -0.8 85 0.8 SW 11 22 6 12 - - 14.0
28/08:30am 1.5 -2.3 -1.1 83 1.0 WSW 9 17 5 9 - - 14.0
28/08:00am 0.9 -2.5 -0.9 88 0.7 SW 7 15 4 8 - - 13.4
28/07:30am 0.9 -3.4 -1.3 85 0.8 W 11 22 6 12 - - 13.4
28/07:00am 0.9 -3.1 -2.0 81 1.1 W 9 15 5 8 - - 13.4
28/06:30am 0.7 -2.9 -1.8 83 0.9 WNW 7 13 4 7 - - 13.4
28/06:00am 0.6 -2.9 -1.2 88 0.7 NNE 7 13 4 7 - - 13.4
28/05:30am 1.0 -2.3 -0.9 87 0.7 WNW 6 9 3 5 - - 13.4
28/05:00am 1.2 -2.2 -0.9 86 0.8 WNW 7 17 4 9 - - 13.4
28/04:30am 1.3 -2.5 -1.1 84 0.9 WSW 9 17 5 9 - - 13.4
28/04:00am 1.4 -2.4 -0.5 87 0.7 NW 9 15 5 8 - - 13.2
28/03:30am 1.9 -3.0 -0.2 86 0.8 SW 15 28 8 15 - - 13.0
28/03:00am 2.1 -2.4 0.0 86 0.8 WSW 13 26 7 14 - - 13.0
28/02:30am 2.4 -3.3 0.8 89 0.6 SW 20 33 11 18 - - 12.8
28/02:00am 2.9 -1.4 1.0 87 0.8 WSW 13 30 7 16 - - 12.4
28/01:30am 3.4 0.3 1.4 87 0.8 NNW 7 11 4 6 - - 12.4
28/01:00am 4.3 0.6 2.5 88 0.8 WSW 11 28 6 15 - - 12.2
28/12:30am 4.6 1.4 2.9 89 0.7 W 9 17 5 9 - - 11.8
28/12:00am 4.8 2.0 3.0 88 0.8 WSW 7 20 4 11 - - 11.0
 
Date/Time
EST
Temp
°C
App
Temp
°C
Dew
Point
°C
Rel
Hum
%
Delta-T
°C
Wind Press
QNH
hPa
Press
MSL
hPa
Rain since
9am
mm
Dir  Spd
km/h
Gust
km/h
Spd
kts
Gust
kts
27/11:30pm 5.0 0.3 2.9 86 0.9 WNW 17 30 9 16 - - 10.0
27/11:00pm 5.2 1.3 3.2 87 0.9 WNW 13 26 7 14 - - 8.2
27/10:30pm 5.5 0.4 3.2 85 1.0 WNW 19 39 10 21 - - 5.8
27/10:00pm 6.1 0.4 3.1 81 1.3 NW 22 48 12 26 - - 3.4
27/09:30pm 6.5 1.3 3.3 80 1.4 NW 20 37 11 20 - - 3.0
27/09:00pm 6.3 1.6 3.3 81 1.3 NW 17 32 9 17 - - 2.8
27/08:30pm 6.2 1.4 2.7 78 1.5 WNW 17 32 9 17 - - 2.8
27/08:00pm 5.8 0.7 3.0 82 1.2 WNW 19 43 10 23 - - 2.8
27/07:30pm 6.2 1.0 2.5 77 1.6 WNW 19 43 10 23 - - 2.6
27/07:00pm 5.6 0.5 2.9 83 1.2 NW 19 33 10 18 - - 2.4
27/06:30pm 5.6 1.6 2.9 83 1.2 WNW 13 32 7 17 - - 2.0
27/06:00pm 6.0 0.6 2.6 79 1.5 WNW 20 37 11 20 - - 1.8
27/05:30pm 6.6 0.7 1.7 71 2.1 NW 22 48 12 26 - - 1.6
27/05:00pm 6.4 1.0 2.3 75 1.8 WNW 20 32 11 17 - - 1.6
27/04:30pm 6.2 1.1 2.8 79 1.5 WNW 19 41 10 22 - - 1.6
27/04:00pm 7.0 0.9 2.7 74 1.9 WNW 24 50 13 27 - - 1.4
27/03:52pm 6.9 0.1 3.0 76 1.7 WNW 28 50 15 27 - - 1.4
27/03:30pm 6.3 1.6 3.3 81 1.3 WNW 17 46 9 25 - - 1.4
27/03:00pm 7.1 1.9 2.6 73 1.9 WNW 19 43 10 23 - - 1.2
27/02:35pm 6.6 1.4 3.4 80 1.4 WNW 20 48 11 26 - - 1.2
27/02:30pm 6.4 1.8 3.7 83 1.2 W 17 30 9 16 - - 1.2
27/02:00pm 6.8 2.5 3.2 78 1.6 WNW 15 30 8 16 - - 0.8
27/01:30pm 6.2 1.0 3.5 83 1.2 WNW 20 37 11 20 - - 0.8
27/01:00pm 7.1 2.8 3.5 78 1.6 NW 15 30 8 16 - - 0.4
27/12:30pm 6.4 1.8 3.7 83 1.2 WNW 17 32 9 17 - - 0.2
27/12:00pm 7.1 3.3 3.9 80 1.4 WNW 13 30 7 16 - - 0.2
27/11:30am 6.9 2.7 3.9 81 1.3 W 15 28 8 15 - - 0.0
27/11:00am 7.1 3.2 3.2 76 1.7 W 13 26 7 14 - - 0.0
27/10:30am 7.1 3.8 4.4 83 1.2 W 11 22 6 12 - - 0.0
27/10:00am 6.6 2.0 3.8 82 1.2 W 17 28 9 15 - - 0.0
27/09:30am 6.5 1.9 3.5 81 1.3 WNW 17 30 9 16 - - 0.0
27/09:00am 6.8 2.4 2.9 76 1.7 WNW 15 30 8 16 - - 1.2
27/08:30am 6.2 1.8 2.7 78 1.5 WNW 15 30 8 16 - - 1.2
27/08:00am 5.9 1.8 2.5 79 1.5 WNW 13 24 7 13 - - 1.2
27/07:30am 5.5 1.1 2.8 83 1.2 W 15 24 8 13 - - 1.2
27/07:00am 5.5 0.6 2.2 79 1.4 WNW 17 28 9 15 - - 1.2
27/06:30am 5.3 2.0 2.5 82 1.2 WSW 9 15 5 8 - - 1.2
27/06:00am 5.4 0.6 2.8 83 1.1 WNW 17 32 9 17 - - 1.2
27/05:30am 5.2 0.9 3.1 86 0.9 WNW 15 26 8 14 - - 1.2
27/05:00am 5.2 1.2 2.9 85 1.0 W 13 26 7 14 - - 1.2
27/04:30am 4.8 1.6 3.3 90 0.6 W 9 20 5 11 - - 1.2
27/04:00am 4.9 1.8 3.4 90 0.6 W 9 20 5 11 - - 1.2
27/03:30am 5.0 2.4 3.3 89 0.7 WNW 6 13 3 7 - - 1.2
27/03:00am 5.0 1.5 3.3 89 0.7 WNW 11 17 6 9 - - 1.0
27/02:30am 5.1 1.6 3.3 88 0.8 WNW 11 20 6 11 - - 1.0
27/02:00am 5.2 2.5 2.7 84 1.1 WNW 6 11 3 6 - - 1.0
27/01:30am 5.2 1.9 2.6 83 1.1 W 9 15 5 8 - - 1.0
27/01:00am 5.2 2.0 2.9 85 1.0 NNW 9 15 5 8 - - 1.0
27/12:30am 5.1 1.1 3.0 86 0.9 NNW 13 22 7 12 - - 1.0
27/12:00am 5.1 1.5 3.0 86 0.9 N 11 20 6 11 - - 1.0
 
Date/Time
EST
Temp
°C
App
Temp
°C
Dew
Point
°C
Rel
Hum
%
Delta-T
°C
Wind Press
QNH
hPa
Press
MSL
hPa
Rain since
9am
mm
Dir  Spd
km/h
Gust
km/h
Spd
kts
Gust
kts
26/11:30pm 5.2 1.6 3.1 86 0.9 NW 11 19 6 10 - - 1.0
26/11:00pm 5.1 1.9 3.1 87 0.9 NW 9 19 5 10 - - 1.0
26/10:30pm 5.0 1.4 3.2 88 0.8 WNW 11 22 6 12 - - 1.0
26/10:00pm 4.9 2.3 3.1 88 0.8 W 6 13 3 7 - - 1.0
26/09:30pm 4.8 3.3 3.0 88 0.8 CALM 0 0 0 0 - - 1.0
26/09:00pm 5.0 1.4 3.0 87 0.9 WNW 11 22 6 12 - - 0.8
26/08:30pm 4.6 1.8 2.9 89 0.7 W 7 11 4 6 - - 0.8
26/08:00pm 4.9 1.0 3.2 89 0.7 W 13 26 7 14 - - 0.8
26/07:30pm 5.1 1.5 3.0 86 0.9 WNW 11 24 6 13 - - 0.8
26/07:00pm 5.1 1.9 3.1 87 0.9 WNW 9 17 5 9 - - 0.8
26/06:30pm 5.1 1.9 3.1 87 0.9 NW 9 15 5 8 - - 0.8
26/06:00pm 5.0 1.8 3.0 87 0.9 WNW 9 19 5 10 - - 0.8
26/05:30pm 4.9 1.7 3.2 89 0.7 WNW 9 19 5 10 - - 0.8
26/05:00pm 5.0 1.1 3.3 89 0.7 WNW 13 20 7 11 - - 0.6
26/04:30pm 5.2 1.3 3.5 89 0.7 WNW 13 22 7 12 - - 0.6
26/04:00pm 5.5 1.7 3.8 89 0.7 NW 13 22 7 12 - - 0.6
26/03:30pm 5.6 2.2 3.9 89 0.7 NW 11 20 6 11 - - 0.6
26/03:00pm 5.7 2.7 3.9 88 0.8 WNW 9 17 5 9 - - 0.4
26/02:30pm 5.6 1.7 3.3 85 1.0 WNW 13 22 7 12 - - 0.4
26/02:00pm 6.5 3.7 3.1 79 1.5 WNW 7 15 4 8 - - 0.4
26/01:30pm 5.6 2.1 3.3 85 1.0 W 11 24 6 13 - - 0.2
26/01:00pm 5.8 1.8 2.8 81 1.3 WNW 13 20 7 11 - - 0.2
26/12:30pm 5.5 0.7 2.7 82 1.2 WNW 17 30 9 16 - - 0.0
26/12:00pm 5.6 2.4 3.1 84 1.1 WNW 9 17 5 9 - - 0.0
26/11:30am 6.1 2.5 2.7 79 1.5 W 11 22 6 12 - - 0.0
26/11:00am 5.4 1.7 2.4 81 1.3 W 11 19 6 10 - - 0.0
26/10:30am 4.9 1.6 2.3 83 1.1 WSW 9 15 5 8 - - 0.0
26/10:00am 4.8 1.5 2.3 84 1.1 W 9 20 5 11 - - 0.0
26/09:30am 4.1 -0.5 1.8 85 0.9 WNW 15 26 8 14 - - 0.0
26/09:00am 3.8 -0.4 1.4 84 1.0 WNW 13 20 7 11 - - 2.6
26/08:30am 3.8 0.3 1.0 82 1.1 WNW 9 19 5 10 - - 2.6
26/08:00am 3.5 -0.1 0.9 83 1.0 WNW 9 15 5 8 - - 2.6
26/07:30am 3.1 -0.4 1.2 87 0.8 NNW 9 19 5 10 - - 2.6
26/07:00am 2.9 0.0 1.3 89 0.6 W 6 13 3 7 - - 2.6
26/06:30am 2.8 -0.2 1.0 88 0.7 N 6 11 3 6 - - 2.6
26/06:00am 2.8 -0.4 1.0 88 0.7 WNW 7 17 4 9 - - 2.4
26/05:30am 2.9 -0.1 1.0 87 0.8 WSW 6 17 3 9 - - 2.4
26/05:00am 2.8 -0.4 1.0 88 0.7 WSW 7 13 4 7 - - 2.4
26/04:30am 2.7 -0.4 1.1 89 0.6 W 7 15 4 8 - - 2.2
26/04:00am 2.5 -1.1 0.6 87 0.7 WNW 9 17 5 9 - - 2.2
26/03:30am 2.5 -0.8 0.4 86 0.8 NNW 7 13 4 7 - - 2.2
26/03:00am 2.4 -1.2 0.3 86 0.8 NNE 9 17 5 9 - - 2.2
26/02:30am 2.4 -0.9 0.1 85 0.9 WNW 7 13 4 7 - - 2.2
26/02:00am 2.5 -1.2 -0.3 82 1.1 NW 9 17 5 9 - - 2.2
26/01:30am 2.4 -1.4 -0.4 82 1.1 WNW 9 17 5 9 - - 2.2
26/01:00am 2.1 -1.6 -0.3 84 0.9 W 9 15 5 8 - - 2.2
26/12:30am 1.8 -2.0 -0.6 84 0.9 WSW 9 13 5 7 - - 2.2
26/12:00am 2.0 -1.8 -0.6 83 1.0 WSW 9 19 5 10 - - 2.2
 
Date/Time
EST
Temp
°C
App
Temp
°C
Dew
Point
°C
Rel
Hum
%
Delta-T
°C
Wind Press
QNH
hPa
Press
MSL
hPa
Rain since
9am
mm
Dir  Spd
km/h
Gust
km/h
Spd
kts
Gust
kts
25/11:30pm 2.0 -1.7 -0.1 86 0.8 WSW 9 17 5 9 - - 2.2
25/11:00pm 2.0 -2.0 0.4 89 0.6 SW 11 24 6 13 - - 2.2
25/10:30pm 2.0 -0.7 0.1 87 0.7 WSW 4 11 2 6 - - 2.2
25/10:00pm 1.4 -1.7 -0.1 90 0.6 WSW 6 11 3 6 - - 2.2
25/09:30pm 2.0 -2.0 0.2 88 0.7 WSW 11 17 6 9 - - 2.2
25/09:00pm 2.2 -1.4 0.6 89 0.6 SW 9 13 5 7 - - 2.0
25/08:30pm 2.4 -0.6 0.5 87 0.7 WSW 6 11 3 6 - - 2.0
25/08:00pm 2.6 -1.0 0.7 87 0.7 WNW 9 15 5 8 - - 2.0
25/07:30pm 2.5 -1.1 0.4 86 0.8 W 9 15 5 8 - - 2.0
25/07:00pm 2.5 -0.7 0.7 88 0.7 NW 7 19 4 10 - - 1.8
25/06:30pm 2.8 -0.2 1.0 88 0.7 NW 6 9 3 5 - - 1.8
25/06:00pm 3.3 1.2 1.5 88 0.7 W 2 7 1 4 - - 1.8
25/05:30pm 3.5 1.4 1.9 89 0.7 WSW 2 6 1 3 - - 1.6

Other Formats:

Comma delimited format used in spreadsheet applications
http://www.bom.gov.au/fwo/IDT60801/IDT60801.94959.axf

JavaScript Object Notation format (JSON) in row-major order
http://www.bom.gov.au/fwo/IDT60801/IDT60801.94959.json